sensor_id;sensor_type;location;lat;lon;timestamp;pressure;altitude;pressure_sealevel;temperature;humidity
17230;BME280;8731;50.364;8.958;2022-08-30T00:01:04;100392.84;;;16.42;60.51
17230;BME280;8731;50.364;8.958;2022-08-30T00:05:29;100396.16;;;16.29;61.37
17230;BME280;8731;50.364;8.958;2022-08-30T00:09:53;100399.94;;;15.99;63.00
17230;BME280;8731;50.364;8.958;2022-08-30T00:14:15;100402.97;;;15.93;63.19
17230;BME280;8731;50.364;8.958;2022-08-30T00:18:38;100398.38;;;16.01;62.19
17230;BME280;8731;50.364;8.958;2022-08-30T00:23:01;100393.91;;;15.99;61.82
17230;BME280;8731;50.364;8.958;2022-08-30T00:27:26;100391.56;;;15.90;61.87
17230;BME280;8731;50.364;8.958;2022-08-30T00:31:49;100395.03;;;15.90;61.44
17230;BME280;8731;50.364;8.958;2022-08-30T00:36:11;100399.16;;;15.88;61.56
17230;BME280;8731;50.364;8.958;2022-08-30T00:40:35;100399.03;;;15.87;61.10
17230;BME280;8731;50.364;8.958;2022-08-30T00:45:12;100403.69;;;15.69;62.96
17230;BME280;8731;50.364;8.958;2022-08-30T00:49:39;100406.47;;;15.50;64.54
17230;BME280;8731;50.364;8.958;2022-08-30T00:54:04;100408.03;;;15.48;63.59
17230;BME280;8731;50.364;8.958;2022-08-30T00:58:30;100407.72;;;15.12;67.14
17230;BME280;8731;50.364;8.958;2022-08-30T01:02:56;100413.09;;;15.36;64.70
17230;BME280;8731;50.364;8.958;2022-08-30T01:07:19;100415.50;;;15.23;65.15
17230;BME280;8731;50.364;8.958;2022-08-30T01:11:42;100406.44;;;14.95;65.23
17230;BME280;8731;50.364;8.958;2022-08-30T01:16:05;100408.34;;;15.19;64.81
17230;BME280;8731;50.364;8.958;2022-08-30T01:20:34;100420.16;;;15.17;63.85
17230;BME280;8731;50.364;8.958;2022-08-30T01:25:03;100410.97;;;15.09;64.27
17230;BME280;8731;50.364;8.958;2022-08-30T01:29:28;100422.72;;;15.17;63.68
17230;BME280;8731;50.364;8.958;2022-08-30T01:33:51;100412.50;;;15.07;65.33
17230;BME280;8731;50.364;8.958;2022-08-30T01:38:13;100407.81;;;15.01;64.69
17230;BME280;8731;50.364;8.958;2022-08-30T01:42:39;100414.94;;;15.05;64.98
17230;BME280;8731;50.364;8.958;2022-08-30T01:47:01;100410.53;;;14.93;65.39
17230;BME280;8731;50.364;8.958;2022-08-30T01:51:26;100418.56;;;14.76;65.59
17230;BME280;8731;50.364;8.958;2022-08-30T01:55:49;100416.91;;;14.66;66.59
17230;BME280;8731;50.364;8.958;2022-08-30T02:00:13;100414.81;;;14.50;67.64
17230;BME280;8731;50.364;8.958;2022-08-30T02:04:37;100407.63;;;14.36;67.03
17230;BME280;8731;50.364;8.958;2022-08-30T02:09:00;100410.03;;;14.55;65.73
17230;BME280;8731;50.364;8.958;2022-08-30T02:13:23;100409.44;;;14.47;66.49
17230;BME280;8731;50.364;8.958;2022-08-30T02:17:47;100405.22;;;14.48;66.61
17230;BME280;8731;50.364;8.958;2022-08-30T02:22:09;100416.13;;;14.25;68.03
17230;BME280;8731;50.364;8.958;2022-08-30T02:26:32;100408.78;;;14.29;67.46
17230;BME280;8731;50.364;8.958;2022-08-30T02:30:55;100417.78;;;14.14;67.93
17230;BME280;8731;50.364;8.958;2022-08-30T02:35:19;100410.50;;;14.08;67.41
17230;BME280;8731;50.364;8.958;2022-08-30T02:39:41;100400.50;;;14.11;67.59
17230;BME280;8731;50.364;8.958;2022-08-30T02:44:04;100406.63;;;14.13;68.12
17230;BME280;8731;50.364;8.958;2022-08-30T02:48:27;100406.53;;;14.02;68.74
17230;BME280;8731;50.364;8.958;2022-08-30T02:52:51;100404.34;;;14.06;68.17
17230;BME280;8731;50.364;8.958;2022-08-30T02:57:13;100410.25;;;14.05;67.70
17230;BME280;8731;50.364;8.958;2022-08-30T03:01:35;100408.59;;;14.06;68.28
17230;BME280;8731;50.364;8.958;2022-08-30T03:05:58;100410.09;;;13.94;68.77
17230;BME280;8731;50.364;8.958;2022-08-30T03:10:23;100419.97;;;13.89;69.39
17230;BME280;8731;50.364;8.958;2022-08-30T03:14:47;100413.97;;;13.89;69.61
17230;BME280;8731;50.364;8.958;2022-08-30T03:19:09;100408.72;;;13.77;70.42
17230;BME280;8731;50.364;8.958;2022-08-30T03:23:31;100393.75;;;13.71;70.67
17230;BME280;8731;50.364;8.958;2022-08-30T03:27:55;100399.22;;;13.35;72.34
17230;BME280;8731;50.364;8.958;2022-08-30T03:32:17;100386.06;;;13.61;70.18
17230;BME280;8731;50.364;8.958;2022-08-30T03:36:39;100387.59;;;13.59;70.72
17230;BME280;8731;50.364;8.958;2022-08-30T03:41:02;100384.28;;;13.50;70.52
17230;BME280;8731;50.364;8.958;2022-08-30T03:45:26;100382.13;;;13.55;70.49
17230;BME280;8731;50.364;8.958;2022-08-30T03:49:48;100388.63;;;13.61;70.48
17230;BME280;8731;50.364;8.958;2022-08-30T03:54:11;100388.50;;;13.60;71.42
17230;BME280;8731;50.364;8.958;2022-08-30T03:58:34;100387.75;;;13.61;71.22
17230;BME280;8731;50.364;8.958;2022-08-30T04:02:58;100389.41;;;13.60;71.95
17230;BME280;8731;50.364;8.958;2022-08-30T04:07:20;100403.44;;;13.45;73.43
17230;BME280;8731;50.364;8.958;2022-08-30T04:11:42;100408.47;;;13.54;73.24
17230;BME280;8731;50.364;8.958;2022-08-30T04:16:05;100417.91;;;13.44;72.94
17230;BME280;8731;50.364;8.958;2022-08-30T04:20:28;100416.19;;;13.25;73.98
17230;BME280;8731;50.364;8.958;2022-08-30T04:24:51;100413.69;;;13.35;73.00
17230;BME280;8731;50.364;8.958;2022-08-30T04:29:13;100414.56;;;13.45;72.10
17230;BME280;8731;50.364;8.958;2022-08-30T04:33:36;100414.31;;;13.42;73.25
17230;BME280;8731;50.364;8.958;2022-08-30T04:38:01;100410.09;;;13.43;72.48
17230;BME280;8731;50.364;8.958;2022-08-30T04:42:23;100421.47;;;13.46;72.25
17230;BME280;8731;50.364;8.958;2022-08-30T04:46:46;100428.53;;;13.10;76.04
17230;BME280;8731;50.364;8.958;2022-08-30T04:51:11;100427.09;;;13.32;74.13
17230;BME280;8731;50.364;8.958;2022-08-30T04:55:36;100413.03;;;13.27;74.66
17230;BME280;8731;50.364;8.958;2022-08-30T05:00:00;100415.97;;;13.32;73.88
17230;BME280;8731;50.364;8.958;2022-08-30T05:04:24;100429.91;;;13.35;74.32
17230;BME280;8731;50.364;8.958;2022-08-30T05:08:46;100429.66;;;13.32;74.25
17230;BME280;8731;50.364;8.958;2022-08-30T05:13:11;100433.00;;;13.41;73.54
17230;BME280;8731;50.364;8.958;2022-08-30T05:17:35;100447.34;;;13.49;73.07
17230;BME280;8731;50.364;8.958;2022-08-30T05:21:58;100444.53;;;13.57;73.73
17230;BME280;8731;50.364;8.958;2022-08-30T05:26:24;100440.19;;;13.56;74.33
17230;BME280;8731;50.364;8.958;2022-08-30T05:30:48;100434.56;;;13.60;74.63
17230;BME280;8731;50.364;8.958;2022-08-30T05:35:12;100443.53;;;13.75;73.37
17230;BME280;8731;50.364;8.958;2022-08-30T05:39:35;100446.09;;;13.75;75.49
17230;BME280;8731;50.364;8.958;2022-08-30T05:43:59;100445.06;;;14.13;75.43
17230;BME280;8731;50.364;8.958;2022-08-30T05:48:24;100442.41;;;14.64;72.49
17230;BME280;8731;50.364;8.958;2022-08-30T05:52:46;100442.56;;;14.98;71.14
17230;BME280;8731;50.364;8.958;2022-08-30T05:57:09;100435.78;;;15.42;70.56
17230;BME280;8731;50.364;8.958;2022-08-30T06:01:34;100434.44;;;15.91;69.57
17230;BME280;8731;50.364;8.958;2022-08-30T06:06:00;100433.03;;;16.30;68.12
17230;BME280;8731;50.364;8.958;2022-08-30T06:10:23;100436.19;;;16.61;67.37
17230;BME280;8731;50.364;8.958;2022-08-30T06:14:45;100438.75;;;17.44;64.99
17230;BME280;8731;50.364;8.958;2022-08-30T06:19:08;100444.38;;;17.63;63.60
17230;BME280;8731;50.364;8.958;2022-08-30T06:23:32;100446.19;;;17.64;63.66
17230;BME280;8731;50.364;8.958;2022-08-30T06:27:54;100449.84;;;17.79;63.17
17230;BME280;8731;50.364;8.958;2022-08-30T06:32:17;100450.09;;;17.71;64.23
17230;BME280;8731;50.364;8.958;2022-08-30T06:36:39;100451.84;;;17.97;63.54
17230;BME280;8731;50.364;8.958;2022-08-30T06:41:05;100449.13;;;18.20;63.43
17230;BME280;8731;50.364;8.958;2022-08-30T06:45:29;100441.47;;;18.86;62.24
17230;BME280;8731;50.364;8.958;2022-08-30T06:49:53;100436.06;;;19.51;61.23
17230;BME280;8731;50.364;8.958;2022-08-30T06:54:16;100443.88;;;19.93;60.38
17230;BME280;8731;50.364;8.958;2022-08-30T06:58:39;100440.03;;;20.31;59.35
17230;BME280;8731;50.364;8.958;2022-08-30T07:03:02;100432.47;;;20.64;58.52
17230;BME280;8731;50.364;8.958;2022-08-30T07:07:24;100431.81;;;21.13;57.06
17230;BME280;8731;50.364;8.958;2022-08-30T07:11:46;100435.66;;;21.69;56.21
17230;BME280;8731;50.364;8.958;2022-08-30T07:16:11;100434.13;;;21.72;56.41
17230;BME280;8731;50.364;8.958;2022-08-30T07:20:36;100436.28;;;22.14;55.79
17230;BME280;8731;50.364;8.958;2022-08-30T07:24:59;100438.03;;;21.81;56.54
17230;BME280;8731;50.364;8.958;2022-08-30T07:29:22;100438.41;;;22.39;55.14
17230;BME280;8731;50.364;8.958;2022-08-30T07:33:46;100432.22;;;22.53;54.46
17230;BME280;8731;50.364;8.958;2022-08-30T07:38:11;100433.66;;;22.65;53.42
17230;BME280;8731;50.364;8.958;2022-08-30T07:42:34;100441.28;;;23.53;53.07
17230;BME280;8731;50.364;8.958;2022-08-30T07:46:56;100440.88;;;23.82;52.44
17230;BME280;8731;50.364;8.958;2022-08-30T07:51:23;100436.47;;;24.20;49.69
17230;BME280;8731;50.364;8.958;2022-08-30T07:55:46;100446.34;;;23.88;51.17
17230;BME280;8731;50.364;8.958;2022-08-30T08:00:09;100442.00;;;24.48;50.89
17230;BME280;8731;50.364;8.958;2022-08-30T08:04:32;100435.44;;;25.00;48.03
17230;BME280;8731;50.364;8.958;2022-08-30T08:08:56;100432.59;;;25.62;47.75
17230;BME280;8731;50.364;8.958;2022-08-30T08:13:21;100436.00;;;25.84;45.79
17230;BME280;8731;50.364;8.958;2022-08-30T08:17:44;100433.31;;;26.57;46.84
17230;BME280;8731;50.364;8.958;2022-08-30T08:22:06;100435.13;;;26.86;46.41
17230;BME280;8731;50.364;8.958;2022-08-30T08:26:32;100431.44;;;27.07;44.35
17230;BME280;8731;50.364;8.958;2022-08-30T08:30:56;100434.09;;;27.38;44.79
17230;BME280;8731;50.364;8.958;2022-08-30T08:35:18;100428.53;;;27.88;44.33
17230;BME280;8731;50.364;8.958;2022-08-30T08:39:41;100430.59;;;27.98;43.83
17230;BME280;8731;50.364;8.958;2022-08-30T08:44:17;100423.22;;;27.85;43.04
17230;BME280;8731;50.364;8.958;2022-08-30T08:48:50;100419.97;;;28.97;41.85
17230;BME280;8731;50.364;8.958;2022-08-30T08:53:20;100421.81;;;29.42;39.94
17230;BME280;8731;50.364;8.958;2022-08-30T08:57:56;100414.19;;;29.99;38.73
17230;BME280;8731;50.364;8.958;2022-08-30T09:02:24;100412.06;;;30.25;37.73
17230;BME280;8731;50.364;8.958;2022-08-30T09:06:53;100408.75;;;29.87;35.73
17230;BME280;8731;50.364;8.958;2022-08-30T09:11:23;100397.72;;;30.59;41.32
17230;BME280;8731;50.364;8.958;2022-08-30T09:15:47;100397.06;;;31.33;37.31
17230;BME280;8731;50.364;8.958;2022-08-30T09:20:10;100395.81;;;31.06;36.12
17230;BME280;8731;50.364;8.958;2022-08-30T09:24:45;100384.22;;;31.60;35.04
17230;BME280;8731;50.364;8.958;2022-08-30T09:29:15;100383.16;;;32.26;34.14
17230;BME280;8731;50.364;8.958;2022-08-30T09:33:38;100368.28;;;32.38;33.73
17230;BME280;8731;50.364;8.958;2022-08-30T09:38:05;100367.63;;;32.66;33.09
17230;BME280;8731;50.364;8.958;2022-08-30T09:42:29;100365.00;;;32.71;33.87
17230;BME280;8731;50.364;8.958;2022-08-30T09:46:53;100361.66;;;32.93;34.55
17230;BME280;8731;50.364;8.958;2022-08-30T09:51:40;100357.47;;;33.42;32.85
17230;BME280;8731;50.364;8.958;2022-08-30T09:56:17;100360.16;;;32.15;31.09
17230;BME280;8731;50.364;8.958;2022-08-30T10:00:56;100351.53;;;32.26;35.46
17230;BME280;8731;50.364;8.958;2022-08-30T10:05:27;100354.47;;;32.72;31.63
17230;BME280;8731;50.364;8.958;2022-08-30T10:10:01;100344.38;;;34.11;30.51
17230;BME280;8731;50.364;8.958;2022-08-30T10:14:49;100342.53;;;34.88;30.22
17230;BME280;8731;50.364;8.958;2022-08-30T10:19:25;100327.56;;;33.80;27.90
17230;BME280;8731;50.364;8.958;2022-08-30T10:24:02;100316.03;;;34.89;28.17
17230;BME280;8731;50.364;8.958;2022-08-30T10:28:31;100309.75;;;35.13;28.99
17230;BME280;8731;50.364;8.958;2022-08-30T10:33:04;100306.06;;;35.51;27.54
17230;BME280;8731;50.364;8.958;2022-08-30T10:37:31;100304.66;;;33.57;28.72
17230;BME280;8731;50.364;8.958;2022-08-30T10:42:03;100295.84;;;33.49;27.64
17230;BME280;8731;50.364;8.958;2022-08-30T10:46:35;100294.72;;;36.38;28.10
17230;BME280;8731;50.364;8.958;2022-08-30T10:51:14;100296.66;;;36.22;27.43
17230;BME280;8731;50.364;8.958;2022-08-30T10:55:46;100297.22;;;35.46;27.10
17230;BME280;8731;50.364;8.958;2022-08-30T11:00:15;100298.56;;;33.91;29.46
17230;BME280;8731;50.364;8.958;2022-08-30T11:05:03;100290.75;;;35.88;27.26
17230;BME280;8731;50.364;8.958;2022-08-30T11:09:47;100286.22;;;36.04;26.22
17230;BME280;8731;50.364;8.958;2022-08-30T11:14:21;100277.03;;;36.38;25.72
17230;BME280;8731;50.364;8.958;2022-08-30T11:18:47;100278.31;;;36.82;26.01
17230;BME280;8731;50.364;8.958;2022-08-30T11:23:30;100281.09;;;36.70;28.26
17230;BME280;8731;50.364;8.958;2022-08-30T11:27:56;100277.59;;;36.66;26.23
17230;BME280;8731;50.364;8.958;2022-08-30T11:32:55;100271.81;;;36.29;26.31
17230;BME280;8731;50.364;8.958;2022-08-30T11:37:40;100268.66;;;35.87;26.09
17230;BME280;8731;50.364;8.958;2022-08-30T11:42:11;100268.34;;;35.04;26.77
17230;BME280;8731;50.364;8.958;2022-08-30T11:46:48;100261.22;;;37.64;25.42
17230;BME280;8731;50.364;8.958;2022-08-30T11:51:35;100269.19;;;35.08;26.34
17230;BME280;8731;50.364;8.958;2022-08-30T11:56:19;100257.84;;;36.90;25.12
17230;BME280;8731;50.364;8.958;2022-08-30T12:00:46;100254.38;;;34.60;28.28
17230;BME280;8731;50.364;8.958;2022-08-30T12:05:56;100254.47;;;34.22;27.03
17230;BME280;8731;50.364;8.958;2022-08-30T12:10:22;100239.38;;;34.63;29.12
17230;BME280;8731;50.364;8.958;2022-08-30T12:14:57;100239.19;;;35.01;26.49
17230;BME280;8731;50.364;8.958;2022-08-30T12:19:20;100235.78;;;34.86;27.40
17230;BME280;8731;50.364;8.958;2022-08-30T12:23:48;100234.16;;;34.27;26.09
17230;BME280;8731;50.364;8.958;2022-08-30T12:28:19;100236.81;;;34.43;27.63
17230;BME280;8731;50.364;8.958;2022-08-30T12:32:44;100230.69;;;33.54;27.15
17230;BME280;8731;50.364;8.958;2022-08-30T12:37:19;100231.19;;;32.34;28.88
17230;BME280;8731;50.364;8.958;2022-08-30T12:41:45;100226.78;;;31.26;29.55
17230;BME280;8731;50.364;8.958;2022-08-30T12:46:10;100225.03;;;32.32;29.05
17230;BME280;8731;50.364;8.958;2022-08-30T12:50:37;100222.78;;;33.73;28.83
17230;BME280;8731;50.364;8.958;2022-08-30T12:55:12;100219.97;;;32.81;28.69
17230;BME280;8731;50.364;8.958;2022-08-30T12:59:40;100221.00;;;33.32;27.51
17230;BME280;8731;50.364;8.958;2022-08-30T13:04:13;100217.50;;;33.56;28.17
17230;BME280;8731;50.364;8.958;2022-08-30T13:08:49;100214.81;;;33.22;28.48
17230;BME280;8731;50.364;8.958;2022-08-30T13:13:26;100215.59;;;32.88;28.33
17230;BME280;8731;50.364;8.958;2022-08-30T13:18:11;100207.44;;;32.31;29.25
17230;BME280;8731;50.364;8.958;2022-08-30T13:22:40;100198.47;;;32.05;29.32
17230;BME280;8731;50.364;8.958;2022-08-30T13:27:20;100194.66;;;31.66;30.32
17230;BME280;8731;50.364;8.958;2022-08-30T13:31:44;100189.28;;;31.48;30.42
17230;BME280;8731;50.364;8.958;2022-08-30T13:36:08;100191.03;;;31.49;30.14
17230;BME280;8731;50.364;8.958;2022-08-30T13:40:51;100185.31;;;32.11;29.91
17230;BME280;8731;50.364;8.958;2022-08-30T13:45:14;100185.41;;;32.23;29.86
17230;BME280;8731;50.364;8.958;2022-08-30T13:49:38;100180.56;;;31.60;30.06
17230;BME280;8731;50.364;8.958;2022-08-30T13:54:03;100170.97;;;31.68;29.14
17230;BME280;8731;50.364;8.958;2022-08-30T13:58:26;100170.41;;;31.02;31.15
17230;BME280;8731;50.364;8.958;2022-08-30T14:02:49;100164.81;;;30.73;30.53
17230;BME280;8731;50.364;8.958;2022-08-30T14:07:15;100173.19;;;30.42;30.65
17230;BME280;8731;50.364;8.958;2022-08-30T14:11:39;100164.53;;;31.31;31.09
17230;BME280;8731;50.364;8.958;2022-08-30T14:16:04;100164.28;;;31.03;30.69
17230;BME280;8731;50.364;8.958;2022-08-30T14:20:28;100166.75;;;30.91;31.29
17230;BME280;8731;50.364;8.958;2022-08-30T14:24:50;100158.47;;;31.39;30.75
17230;BME280;8731;50.364;8.958;2022-08-30T14:29:16;100164.97;;;30.89;30.34
17230;BME280;8731;50.364;8.958;2022-08-30T14:33:41;100162.31;;;30.85;31.02
17230;BME280;8731;50.364;8.958;2022-08-30T14:38:04;100151.03;;;30.23;30.74
17230;BME280;8731;50.364;8.958;2022-08-30T14:42:26;100149.44;;;31.14;31.22
17230;BME280;8731;50.364;8.958;2022-08-30T14:46:50;100154.72;;;30.37;30.58
17230;BME280;8731;50.364;8.958;2022-08-30T14:51:14;100142.41;;;30.32;30.58
17230;BME280;8731;50.364;8.958;2022-08-30T14:55:39;100142.72;;;30.58;30.51
17230;BME280;8731;50.364;8.958;2022-08-30T15:00:03;100141.94;;;30.65;31.18
17230;BME280;8731;50.364;8.958;2022-08-30T15:04:29;100138.00;;;30.29;31.93
17230;BME280;8731;50.364;8.958;2022-08-30T15:08:51;100123.59;;;30.71;31.27
17230;BME280;8731;50.364;8.958;2022-08-30T15:13:14;100127.56;;;30.35;31.60
17230;BME280;8731;50.364;8.958;2022-08-30T15:17:37;100113.28;;;30.92;31.64
17230;BME280;8731;50.364;8.958;2022-08-30T15:22:02;100121.88;;;30.74;30.69
17230;BME280;8731;50.364;8.958;2022-08-30T15:26:26;100108.88;;;30.88;30.92
17230;BME280;8731;50.364;8.958;2022-08-30T15:30:49;100110.06;;;30.39;31.75
17230;BME280;8731;50.364;8.958;2022-08-30T15:35:11;100102.88;;;30.24;31.48
17230;BME280;8731;50.364;8.958;2022-08-30T15:39:35;100094.31;;;30.40;31.28
17230;BME280;8731;50.364;8.958;2022-08-30T15:43:57;100105.72;;;30.42;31.45
17230;BME280;8731;50.364;8.958;2022-08-30T15:48:20;100110.69;;;29.57;32.45
17230;BME280;8731;50.364;8.958;2022-08-30T15:52:43;100107.25;;;30.23;32.17
17230;BME280;8731;50.364;8.958;2022-08-30T15:57:06;100097.50;;;30.12;32.36
17230;BME280;8731;50.364;8.958;2022-08-30T16:01:28;100098.81;;;29.82;32.15
17230;BME280;8731;50.364;8.958;2022-08-30T16:05:51;100098.38;;;30.12;32.42
17230;BME280;8731;50.364;8.958;2022-08-30T16:10:13;100095.53;;;29.99;32.94
17230;BME280;8731;50.364;8.958;2022-08-30T16:14:37;100091.91;;;29.90;32.92
17230;BME280;8731;50.364;8.958;2022-08-30T16:18:59;100095.06;;;29.63;32.94
17230;BME280;8731;50.364;8.958;2022-08-30T16:23:21;100100.38;;;29.68;33.11
17230;BME280;8731;50.364;8.958;2022-08-30T16:27:43;100086.69;;;29.92;33.21
17230;BME280;8731;50.364;8.958;2022-08-30T16:32:07;100089.00;;;29.69;32.70
17230;BME280;8731;50.364;8.958;2022-08-30T16:36:30;100086.59;;;29.84;33.32
17230;BME280;8731;50.364;8.958;2022-08-30T16:40:55;100082.06;;;29.74;33.24
17230;BME280;8731;50.364;8.958;2022-08-30T16:45:17;100080.34;;;29.76;33.02
17230;BME280;8731;50.364;8.958;2022-08-30T16:49:41;100085.22;;;29.50;33.50
17230;BME280;8731;50.364;8.958;2022-08-30T16:54:05;100078.00;;;29.36;33.89
17230;BME280;8731;50.364;8.958;2022-08-30T16:58:28;100084.78;;;29.24;33.87
17230;BME280;8731;50.364;8.958;2022-08-30T17:02:51;100076.28;;;28.86;34.36
17230;BME280;8731;50.364;8.958;2022-08-30T17:07:15;100086.34;;;28.63;34.57
17230;BME280;8731;50.364;8.958;2022-08-30T17:11:38;100092.03;;;28.41;35.02
17230;BME280;8731;50.364;8.958;2022-08-30T17:16:02;100084.34;;;28.50;34.89
17230;BME280;8731;50.364;8.958;2022-08-30T17:20:25;100090.66;;;28.61;34.89
17230;BME280;8731;50.364;8.958;2022-08-30T17:24:51;100094.06;;;28.57;35.13
17230;BME280;8731;50.364;8.958;2022-08-30T17:29:13;100100.06;;;28.50;34.63
17230;BME280;8731;50.364;8.958;2022-08-30T17:33:36;100101.09;;;28.60;34.80
17230;BME280;8731;50.364;8.958;2022-08-30T17:38:00;100104.28;;;28.42;35.08
17230;BME280;8731;50.364;8.958;2022-08-30T17:42:24;100121.88;;;28.08;35.52
17230;BME280;8731;50.364;8.958;2022-08-30T17:46:47;100128.31;;;27.47;36.53
17230;BME280;8731;50.364;8.958;2022-08-30T17:51:09;100133.06;;;27.64;36.65
17230;BME280;8731;50.364;8.958;2022-08-30T17:55:32;100143.00;;;27.42;37.00
17230;BME280;8731;50.364;8.958;2022-08-30T17:59:55;100146.00;;;27.58;36.26
17230;BME280;8731;50.364;8.958;2022-08-30T18:04:19;100154.97;;;27.33;36.62
17230;BME280;8731;50.364;8.958;2022-08-30T18:08:42;100153.41;;;27.41;37.12
17230;BME280;8731;50.364;8.958;2022-08-30T18:13:04;100161.97;;;26.99;37.68
17230;BME280;8731;50.364;8.958;2022-08-30T18:17:28;100162.06;;;27.04;37.06
17230;BME280;8731;50.364;8.958;2022-08-30T18:21:50;100173.09;;;26.93;37.38
17230;BME280;8731;50.364;8.958;2022-08-30T18:26:14;100171.19;;;26.88;38.10
17230;BME280;8731;50.364;8.958;2022-08-30T18:30:36;100174.16;;;26.69;37.67
17230;BME280;8731;50.364;8.958;2022-08-30T18:35:00;100181.69;;;26.58;38.08
17230;BME280;8731;50.364;8.958;2022-08-30T18:39:28;100180.81;;;26.57;37.41
17230;BME280;8731;50.364;8.958;2022-08-30T18:44:06;100184.31;;;26.58;38.43
17230;BME280;8731;50.364;8.958;2022-08-30T18:48:29;100191.19;;;26.54;38.22
17230;BME280;8731;50.364;8.958;2022-08-30T18:52:53;100190.81;;;26.42;38.49
17230;BME280;8731;50.364;8.958;2022-08-30T18:57:15;100207.72;;;26.26;38.94
17230;BME280;8731;50.364;8.958;2022-08-30T19:01:37;100211.72;;;26.15;39.44
17230;BME280;8731;50.364;8.958;2022-08-30T19:06:01;100205.41;;;26.07;39.14
17230;BME280;8731;50.364;8.958;2022-08-30T19:10:26;100208.50;;;25.95;38.84
17230;BME280;8731;50.364;8.958;2022-08-30T19:14:49;100201.91;;;25.80;38.85
17230;BME280;8731;50.364;8.958;2022-08-30T19:19:11;100199.72;;;25.66;39.92
17230;BME280;8731;50.364;8.958;2022-08-30T19:23:34;100194.41;;;25.63;40.05
17230;BME280;8731;50.364;8.958;2022-08-30T19:27:58;100196.50;;;25.48;39.84
17230;BME280;8731;50.364;8.958;2022-08-30T19:32:21;100199.22;;;25.26;40.17
17230;BME280;8731;50.364;8.958;2022-08-30T19:36:43;100190.34;;;25.21;40.47
17230;BME280;8731;50.364;8.958;2022-08-30T19:41:06;100190.16;;;25.15;40.13
17230;BME280;8731;50.364;8.958;2022-08-30T19:45:30;100193.53;;;24.88;41.11
17230;BME280;8731;50.364;8.958;2022-08-30T19:49:53;100190.69;;;24.82;41.05
17230;BME280;8731;50.364;8.958;2022-08-30T19:54:15;100192.75;;;24.91;40.67
17230;BME280;8731;50.364;8.958;2022-08-30T19:58:38;100189.66;;;24.77;40.73
17230;BME280;8731;50.364;8.958;2022-08-30T20:03:02;100194.06;;;24.79;40.24
17230;BME280;8731;50.364;8.958;2022-08-30T20:07:25;100208.38;;;24.67;41.49
17230;BME280;8731;50.364;8.958;2022-08-30T20:11:50;100200.53;;;24.65;41.12
17230;BME280;8731;50.364;8.958;2022-08-30T20:16:13;100201.81;;;24.54;41.53
17230;BME280;8731;50.364;8.958;2022-08-30T20:20:37;100211.44;;;24.33;42.67
17230;BME280;8731;50.364;8.958;2022-08-30T20:24:59;100216.00;;;24.38;41.97
17230;BME280;8731;50.364;8.958;2022-08-30T20:29:21;100225.63;;;24.18;42.25
17230;BME280;8731;50.364;8.958;2022-08-30T20:33:44;100221.63;;;24.06;42.31
17230;BME280;8731;50.364;8.958;2022-08-30T20:38:07;100231.81;;;23.79;44.02
17230;BME280;8731;50.364;8.958;2022-08-30T20:42:30;100218.34;;;23.89;43.03
17230;BME280;8731;50.364;8.958;2022-08-30T20:46:52;100221.84;;;23.89;42.60
17230;BME280;8731;50.364;8.958;2022-08-30T20:51:16;100227.56;;;23.81;42.88
17230;BME280;8731;50.364;8.958;2022-08-30T20:55:41;100232.59;;;23.76;42.95
17230;BME280;8731;50.364;8.958;2022-08-30T21:00:07;100232.28;;;23.69;43.46
17230;BME280;8731;50.364;8.958;2022-08-30T21:04:32;100240.97;;;23.69;43.35
17230;BME280;8731;50.364;8.958;2022-08-30T21:08:56;100245.91;;;23.63;42.96
17230;BME280;8731;50.364;8.958;2022-08-30T21:13:20;100247.25;;;23.55;43.44
17230;BME280;8731;50.364;8.958;2022-08-30T21:17:44;100250.44;;;23.48;43.97
17230;BME280;8731;50.364;8.958;2022-08-30T21:22:07;100248.47;;;23.42;43.88
17230;BME280;8731;50.364;8.958;2022-08-30T21:26:29;100248.88;;;23.32;44.21
17230;BME280;8731;50.364;8.958;2022-08-30T21:31:03;100255.06;;;23.15;44.56
17230;BME280;8731;50.364;8.958;2022-08-30T21:35:27;100254.31;;;23.17;44.80
17230;BME280;8731;50.364;8.958;2022-08-30T21:40:08;100257.47;;;23.10;44.83
17230;BME280;8731;50.364;8.958;2022-08-30T21:44:34;100266.91;;;22.52;47.63
17230;BME280;8731;50.364;8.958;2022-08-30T21:48:59;100267.59;;;22.85;46.00
17230;BME280;8731;50.364;8.958;2022-08-30T21:53:22;100268.19;;;22.79;45.36
17230;BME280;8731;50.364;8.958;2022-08-30T21:57:44;100274.56;;;22.86;45.29
17230;BME280;8731;50.364;8.958;2022-08-30T22:02:07;100271.38;;;22.74;46.31
17230;BME280;8731;50.364;8.958;2022-08-30T22:06:34;100273.97;;;22.74;45.71
17230;BME280;8731;50.364;8.958;2022-08-30T22:10:59;100269.91;;;22.61;47.08
17230;BME280;8731;50.364;8.958;2022-08-30T22:15:27;100272.44;;;22.59;46.60
17230;BME280;8731;50.364;8.958;2022-08-30T22:19:49;100269.19;;;22.46;47.33
17230;BME280;8731;50.364;8.958;2022-08-30T22:24:13;100271.88;;;22.47;46.83
17230;BME280;8731;50.364;8.958;2022-08-30T22:28:36;100277.13;;;21.95;48.18
17230;BME280;8731;50.364;8.958;2022-08-30T22:32:58;100272.66;;;22.27;48.09
17230;BME280;8731;50.364;8.958;2022-08-30T22:37:21;100282.16;;;22.09;48.70
17230;BME280;8731;50.364;8.958;2022-08-30T22:41:45;100277.22;;;21.97;49.45
17230;BME280;8731;50.364;8.958;2022-08-30T22:46:08;100279.63;;;22.10;48.55
17230;BME280;8731;50.364;8.958;2022-08-30T22:50:31;100282.97;;;22.08;47.83
17230;BME280;8731;50.364;8.958;2022-08-30T22:54:54;100292.38;;;22.05;47.99
17230;BME280;8731;50.364;8.958;2022-08-30T22:59:18;100292.84;;;21.98;48.57
17230;BME280;8731;50.364;8.958;2022-08-30T23:03:40;100297.06;;;21.96;48.67
17230;BME280;8731;50.364;8.958;2022-08-30T23:08:03;100293.22;;;21.88;49.29
17230;BME280;8731;50.364;8.958;2022-08-30T23:12:26;100301.03;;;21.72;50.02
17230;BME280;8731;50.364;8.958;2022-08-30T23:16:50;100306.50;;;21.60;49.82
17230;BME280;8731;50.364;8.958;2022-08-30T23:21:15;100303.41;;;21.67;49.73
17230;BME280;8731;50.364;8.958;2022-08-30T23:25:39;100305.69;;;21.61;50.23